Time;durP1;ratioP1;P1;durP2;ratioP2;P2;SDS_P1;SDS_P2;PMS_P1;PMS_P2;Temp;Humidity;BMP_temperature;BMP_pressure;BME280_temperature;BME280_humidity;BME280_pressure;Samples;Min_cycle;Max_cycle;Signal;HPM_P1;HPM_P2
2022/06/30 00:01:45;;;;;;;2.80;2.60;;;21.90;99.90;;;;;;5052895;28;20810;-59
2022/06/30 00:04:11;;;;;;;3.10;2.80;;;21.70;99.90;;;;;;5052835;28;20871;-57
2022/06/30 00:06:38;;;;;;;3.00;2.80;;;21.50;99.90;;;;;;5052758;28;20448;-59
2022/06/30 00:09:06;;;;;;;3.17;3.00;;;21.20;99.90;;;;;;5052685;28;20448;-59
2022/06/30 00:11:32;;;;;;;4.77;2.53;;;21.10;99.90;;;;;;5052545;28;20843;-59
2022/06/30 00:13:59;;;;;;;3.20;2.67;;;21.20;99.90;;;;;;5052516;28;20452;-59
2022/06/30 00:16:25;;;;;;;2.63;2.40;;;21.20;99.90;;;;;;5052724;28;20448;-59
2022/06/30 00:18:52;;;;;;;3.63;2.80;;;21.20;99.90;;;;;;5052660;28;20452;-59
2022/06/30 00:21:18;;;;;;;3.37;2.97;;;21.20;99.90;;;;;;5052590;28;20563;-58
2022/06/30 00:23:45;;;;;;;3.20;2.30;;;21.20;99.90;;;;;;5052471;28;20543;-59
2022/06/30 00:26:13;;;;;;;2.80;2.60;;;21.20;99.90;;;;;;5052440;28;20547;-59
2022/06/30 00:28:39;;;;;;;3.00;2.80;;;21.20;99.90;;;;;;5052443;28;20506;-59
2022/06/30 00:31:06;;;;;;;2.60;2.40;;;21.30;99.90;;;;;;5052496;28;20483;-59
2022/06/30 00:33:32;;;;;;;5.27;2.90;;;21.30;99.90;;;;;;5052485;28;20543;-58
2022/06/30 00:35:59;;;;;;;3.83;2.80;;;21.40;99.90;;;;;;5052481;28;20444;-59
2022/06/30 00:38:25;;;;;;;5.50;3.03;;;21.20;99.90;;;;;;5052264;28;20448;-58
2022/06/30 00:40:52;;;;;;;2.60;2.43;;;21.10;99.90;;;;;;5052304;28;20543;-59
2022/06/30 00:43:20;;;;;;;2.70;2.50;;;21.00;99.90;;;;;;5054581;28;20444;-58
2022/06/30 00:45:48;;;;;;;3.37;2.60;;;21.00;99.90;;;;;;5056177;28;20516;-59
2022/06/30 00:48:16;;;;;;;2.63;2.43;;;21.10;99.90;;;;;;5055831;28;20973;-58
2022/06/30 00:50:42;;;;;;;2.40;2.30;;;21.10;99.90;;;;;;5055993;28;20478;-59
2022/06/30 00:53:10;;;;;;;2.97;2.67;;;21.00;99.90;;;;;;5055861;28;20947;-58
2022/06/30 00:55:37;;;;;;;2.50;2.40;;;21.00;99.90;;;;;;5055689;28;20977;-59
2022/06/30 00:58:06;;;;;;;2.83;2.67;;;21.00;99.90;;;;;;5055602;28;20475;-58
2022/06/30 01:00:37;;;;;;;3.53;2.97;;;20.90;99.90;;;;;;5055871;28;20487;-58
2022/06/30 01:03:06;;;;;;;2.70;2.37;;;21.00;99.90;;;;;;5055767;28;20854;-59
2022/06/30 01:05:33;;;;;;;3.83;2.60;;;21.10;99.90;;;;;;5055694;28;20459;-59
2022/06/30 01:08:01;;;;;;;2.83;2.73;;;21.30;99.90;;;;;;5055769;28;21023;-58
2022/06/30 01:13:12;;;;;;;2.93;2.73;;;21.40;99.90;;;;;;5055753;28;20953;-59
2022/06/30 01:15:39;;;;;;;2.67;2.40;;;21.30;99.90;;;;;;5055716;28;20456;-59
2022/06/30 01:18:06;;;;;;;2.57;2.37;;;21.20;99.90;;;;;;5055672;28;20531;-59
2022/06/30 01:20:34;;;;;;;2.87;2.70;;;21.20;99.90;;;;;;5055215;28;20892;-58
2022/06/30 01:23:03;;;;;;;3.77;2.93;;;21.30;99.90;;;;;;5055262;28;20970;-59
2022/06/30 01:25:31;;;;;;;3.97;2.90;;;21.40;99.90;;;;;;5055643;28;20455;-59
2022/06/30 01:27:57;;;;;;;3.03;2.83;;;21.50;99.90;;;;;;5055290;28;20534;-59
2022/06/30 01:30:24;;;;;;;3.07;2.87;;;21.50;99.90;;;;;;5055205;28;20543;-58
2022/06/30 01:32:51;;;;;;;3.20;3.00;;;21.50;99.90;;;;;;5055019;28;20483;-59
2022/06/30 01:35:18;;;;;;;3.40;3.10;;;21.50;99.90;;;;;;5055053;28;20451;-59
2022/06/30 01:37:48;;;;;;;5.27;3.00;;;21.60;99.90;;;;;;5055356;28;20552;-59
2022/06/30 01:40:16;;;;;;;3.40;3.10;;;21.50;99.90;;;;;;5055082;28;20543;-58
2022/06/30 01:42:43;;;;;;;3.73;3.23;;;21.40;99.90;;;;;;5054996;28;20554;-59
2022/06/30 01:45:10;;;;;;;3.53;3.23;;;21.20;99.90;;;;;;5054884;28;20555;-58
2022/06/30 01:47:37;;;;;;;3.90;3.57;;;20.70;99.90;;;;;;5054756;28;20448;-59
2022/06/30 01:50:06;;;;;;;4.17;3.83;;;20.50;99.90;;;;;;5054944;28;20539;-58
2022/06/30 01:52:32;;;;;;;3.40;3.20;;;20.40;99.90;;;;;;5054564;28;21018;-59
2022/06/30 01:54:59;;;;;;;3.40;3.20;;;20.40;99.90;;;;;;5053896;28;20535;-58
2022/06/30 01:57:27;;;;;;;3.40;3.20;;;20.40;99.90;;;;;;5054693;28;20631;-58
2022/06/30 01:59:53;;;;;;;4.83;3.73;;;20.20;99.90;;;;;;5054583;28;20448;-58
2022/06/30 02:02:20;;;;;;;4.03;3.30;;;20.10;99.90;;;;;;5054478;28;20621;-57
2022/06/30 02:04:50;;;;;;;3.90;3.57;;;20.00;99.90;;;;;;5054680;28;20921;-58
2022/06/30 02:07:17;;;;;;;3.60;3.40;;;19.90;99.90;;;;;;5054553;28;20471;-58
2022/06/30 02:09:44;;;;;;;4.57;3.40;;;19.90;99.90;;;;;;5054441;28;20892;-57
2022/06/30 02:14:57;;;;;;;4.73;3.70;;;20.00;99.90;;;;;;5054267;28;20439;-59
2022/06/30 02:17:23;;;;;;;3.37;3.13;;;20.00;99.90;;;;;;5054378;28;20498;-59
2022/06/30 02:19:50;;;;;;;4.77;4.27;;;19.90;99.90;;;;;;5054295;28;20457;-58
2022/06/30 02:22:16;;;;;;;3.60;3.40;;;19.90;99.90;;;;;;5054170;28;20455;-58
2022/06/30 02:24:43;;;;;;;4.10;3.90;;;19.90;99.90;;;;;;5054162;28;20872;-58
2022/06/30 02:27:09;;;;;;;4.17;3.87;;;20.00;99.90;;;;;;5054006;28;20531;-59
2022/06/30 02:29:36;;;;;;;4.07;3.43;;;20.10;99.90;;;;;;5054163;28;20444;-59
2022/06/30 02:32:05;;;;;;;3.67;3.47;;;20.00;99.90;;;;;;5053807;28;21045;-59
2022/06/30 02:34:32;;;;;;;3.83;3.50;;;20.00;99.90;;;;;;5054048;28;20445;-57
2022/06/30 02:36:58;;;;;;;4.43;4.23;;;20.00;99.90;;;;;;5053951;28;20874;-58
2022/06/30 02:39:25;;;;;;;4.03;3.73;;;19.90;99.90;;;;;;5053998;28;20449;-58
2022/06/30 02:41:52;;;;;;;6.77;3.63;;;19.80;99.90;;;;;;5053623;28;20491;-58
2022/06/30 02:44:18;;;;;;;4.13;3.83;;;19.70;99.90;;;;;;5053872;28;20948;-58
2022/06/30 02:46:45;;;;;;;3.40;3.20;;;19.70;99.90;;;;;;5053860;28;20441;-58
2022/06/30 02:49:13;;;;;;;4.40;3.97;;;19.70;99.90;;;;;;5053666;28;20531;-56
2022/06/30 02:51:40;;;;;;;4.33;3.37;;;19.80;99.90;;;;;;5053691;28;20474;-59
2022/06/30 02:54:06;;;;;;;3.90;3.70;;;19.90;99.90;;;;;;5053706;28;20934;-59
2022/06/30 02:56:33;;;;;;;3.87;3.57;;;20.00;99.90;;;;;;5053494;28;20494;-58
2022/06/30 02:58:59;;;;;;;4.30;4.00;;;20.00;99.90;;;;;;5053534;28;20528;-59
2022/06/30 03:01:26;;;;;;;3.97;3.60;;;19.90;99.90;;;;;;5053438;28;20457;-59
2022/06/30 03:03:52;;;;;;;5.33;4.00;;;20.00;99.90;;;;;;5053533;28;20455;-58
2022/06/30 03:06:20;;;;;;;4.67;4.17;;;20.00;99.90;;;;;;5053243;28;20479;-58
2022/06/30 03:08:47;;;;;;;3.43;3.23;;;20.00;99.90;;;;;;5053410;28;20892;-59
2022/06/30 03:11:16;;;;;;;3.37;3.17;;;20.00;99.90;;;;;;5053405;28;20483;-58
2022/06/30 03:13:43;;;;;;;3.90;3.67;;;20.10;99.90;;;;;;5053386;28;20456;-58
2022/06/30 03:16:10;;;;;;;4.20;3.80;;;20.10;99.90;;;;;;5053273;28;20455;-58
2022/06/30 03:18:37;;;;;;;3.77;3.57;;;20.10;99.90;;;;;;5053194;28;20539;-59
2022/06/30 03:21:03;;;;;;;4.23;3.80;;;20.10;99.90;;;;;;5053130;28;20947;-58
2022/06/30 03:23:31;;;;;;;5.17;3.77;;;20.20;99.90;;;;;;5052979;28;20455;-59
2022/06/30 03:25:57;;;;;;;4.50;4.20;;;20.30;99.90;;;;;;5053174;28;20535;-59
2022/06/30 03:28:24;;;;;;;4.00;3.70;;;20.40;99.90;;;;;;5052942;28;20449;-59
2022/06/30 03:30:50;;;;;;;4.73;4.33;;;20.50;99.90;;;;;;5053039;28;20538;-58
2022/06/30 03:33:18;;;;;;;3.80;3.50;;;20.60;99.90;;;;;;5052940;28;20491;-58
2022/06/30 03:35:45;;;;;;;5.13;3.67;;;20.70;99.90;;;;;;5052835;28;20935;-57
2022/06/30 03:38:12;;;;;;;4.43;3.80;;;20.80;99.90;;;;;;5052788;28;20534;-59
2022/06/30 03:40:40;;;;;;;4.47;3.50;;;20.90;99.90;;;;;;5053045;28;20452;-59
2022/06/30 03:43:07;;;;;;;4.77;3.80;;;20.90;99.90;;;;;;5052983;28;21133;-58
2022/06/30 03:45:34;;;;;;;5.83;3.70;;;20.70;99.90;;;;;;5052832;28;20456;-58
2022/06/30 03:48:01;;;;;;;4.07;3.77;;;20.50;99.90;;;;;;5052898;28;20444;-60
2022/06/30 03:50:28;;;;;;;4.03;3.80;;;20.30;99.90;;;;;;5052875;28;20448;-59
2022/06/30 03:52:54;;;;;;;4.60;4.30;;;20.30;99.90;;;;;;5052861;28;20488;-57
2022/06/30 03:55:21;;;;;;;6.97;5.20;;;20.20;99.90;;;;;;5053008;28;20559;-57
2022/06/30 03:57:49;;;;;;;5.10;3.73;;;20.20;99.90;;;;;;5052632;28;20504;-58
2022/06/30 04:00:16;;;;;;;3.80;3.50;;;20.20;99.90;;;;;;5052737;28;20444;-59
2022/06/30 04:02:42;;;;;;;4.10;3.70;;;20.40;99.90;;;;;;5052585;28;20454;-59
2022/06/30 04:05:09;;;;;;;4.37;4.07;;;20.50;99.90;;;;;;5052500;28;20539;-59
2022/06/30 04:07:40;;;;;;;5.73;4.10;;;20.70;99.90;;;;;;5052783;28;20455;-60
2022/06/30 04:10:08;;;;;;;4.03;3.73;;;20.80;99.90;;;;;;5052692;28;20463;-59
2022/06/30 04:12:35;;;;;;;5.97;4.27;;;20.80;99.90;;;;;;5052567;28;20919;-59
2022/06/30 04:15:03;;;;;;;4.20;3.90;;;20.90;99.90;;;;;;5052758;28;20455;-58
2022/06/30 04:17:33;;;;;;;4.00;3.80;;;21.00;99.90;;;;;;5053953;28;20497;-59
2022/06/30 04:20:00;;;;;;;5.60;5.10;;;20.90;99.90;;;;;;5056858;28;20863;-59
2022/06/30 04:22:26;;;;;;;6.37;4.80;;;20.70;99.90;;;;;;5056551;28;20488;-59
2022/06/30 04:24:53;;;;;;;5.80;4.10;;;20.50;99.90;;;;;;5056246;28;21030;-59
2022/06/30 04:27:20;;;;;;;4.63;4.23;;;20.50;99.90;;;;;;5056381;28;20452;-59
2022/06/30 04:29:46;;;;;;;4.40;4.03;;;20.60;99.90;;;;;;5056202;28;20783;-58
2022/06/30 04:34:58;;;;;;;5.60;4.20;;;20.70;99.90;;;;;;5056218;28;20430;-59
2022/06/30 04:37:24;;;;;;;5.00;3.47;;;20.90;99.90;;;;;;5056229;28;21018;-59
2022/06/30 04:41:23;;;;;;;4.87;4.10;;;21.00;99.90;;;;;;5056089;28;20527;-57
2022/06/30 04:42:37;;;;;;;4.70;4.00;;;20.90;99.90;;;;;;5055910;28;20776;-59
2022/06/30 04:45:05;;;;;;;4.90;4.20;;;20.90;99.90;;;;;;5056116;28;20501;-59
2022/06/30 04:47:34;;;;;;;4.20;3.57;;;20.70;99.90;;;;;;5056040;28;20286;-58
2022/06/30 04:50:01;;;;;;;4.93;4.53;;;20.60;99.90;;;;;;5055679;28;20949;-59
2022/06/30 04:52:27;;;;;;;11.80;5.17;;;20.60;99.90;;;;;;5055882;28;20479;-58
2022/06/30 04:54:54;;;;;;;5.00;4.20;;;20.60;99.90;;;;;;5055785;28;20797;-58
2022/06/30 04:57:20;;;;;;;8.23;4.37;;;20.60;99.90;;;;;;5055560;28;20498;-58
2022/06/30 04:59:47;;;;;;;4.87;4.47;;;20.60;99.90;;;;;;5055739;28;20539;-58
2022/06/30 05:02:13;;;;;;;8.60;5.60;;;20.50;99.90;;;;;;5055709;28;20445;-58
2022/06/30 05:04:43;;;;;;;4.70;4.30;;;20.30;99.90;;;;;;5055702;28;20451;-58
2022/06/30 05:07:10;;;;;;;8.90;5.07;;;20.30;99.90;;;;;;5055697;28;20963;-57
2022/06/30 05:09:37;;;;;;;5.00;4.67;;;20.20;99.90;;;;;;5055442;28;20535;-58
2022/06/30 05:12:04;;;;;;;9.00;4.50;;;20.10;99.90;;;;;;5055494;28;20472;-58
2022/06/30 05:14:30;;;;;;;8.10;5.10;;;20.00;99.90;;;;;;5055728;28;20448;-59
2022/06/30 05:16:57;;;;;;;6.10;5.60;;;20.10;99.90;;;;;;5055380;28;20488;-58
2022/06/30 05:19:23;;;;;;;5.80;5.40;;;20.10;99.90;;;;;;5055377;28;20482;-56
2022/06/30 05:21:51;;;;;;;5.40;5.10;;;20.00;99.90;;;;;;5055305;28;20487;-58
2022/06/30 05:27:02;;;;;;;5.30;4.90;;;20.00;99.90;;;;;;5055202;28;20443;-59
2022/06/30 05:29:28;;;;;;;5.53;5.03;;;20.00;99.90;;;;;;5054941;28;20804;-57
2022/06/30 05:31:55;;;;;;;6.03;5.53;;;20.20;99.90;;;;;;5054895;28;20448;-58
2022/06/30 05:34:21;;;;;;;6.07;5.43;;;20.40;99.90;;;;;;5055068;28;20455;-56
2022/06/30 05:36:47;;;;;;;6.13;5.70;;;20.30;99.90;;;;;;5054958;28;21062;-59
2022/06/30 05:39:17;;;;;;;7.60;5.57;;;20.30;99.90;;;;;;5055006;28;20510;-59
2022/06/30 05:41:43;;;;;;;6.40;5.90;;;20.40;99.90;;;;;;5054986;28;20448;-59
2022/06/30 05:44:10;;;;;;;6.17;5.67;;;20.50;99.90;;;;;;5054928;28;20452;-58
2022/06/30 05:46:36;;;;;;;5.77;5.27;;;20.30;99.90;;;;;;5054804;28;20921;-58
2022/06/30 05:49:03;;;;;;;7.90;5.60;;;20.40;99.90;;;;;;5054720;28;20453;-58
2022/06/30 05:51:29;;;;;;;5.40;5.00;;;20.50;99.90;;;;;;5054578;28;20453;-56
2022/06/30 05:53:56;;;;;;;7.57;5.80;;;20.50;99.90;;;;;;5054665;28;20571;-58
2022/06/30 05:56:24;;;;;;;6.13;5.70;;;20.50;99.90;;;;;;5054309;28;20476;-57
2022/06/30 05:58:50;;;;;;;6.90;6.30;;;20.40;99.90;;;;;;5054461;28;20936;-58
2022/06/30 06:01:18;;;;;;;7.00;6.40;;;20.30;99.90;;;;;;5054469;28;20455;-58
2022/06/30 06:03:44;;;;;;;6.23;5.70;;;20.30;99.90;;;;;;5054328;28;20456;-58
2022/06/30 06:06:11;;;;;;;6.13;5.63;;;20.50;99.90;;;;;;5054250;28;20543;-58
2022/06/30 06:08:37;;;;;;;6.13;5.63;;;20.70;99.90;;;;;;5054539;28;20543;-57
2022/06/30 06:11:04;;;;;;;6.07;5.50;;;20.60;99.90;;;;;;5054231;28;20543;-57
2022/06/30 06:13:32;;;;;;;5.97;5.57;;;20.60;99.90;;;;;;5054182;28;21074;-58
2022/06/30 06:15:58;;;;;;;6.73;6.10;;;20.60;99.90;;;;;;5054038;28;20526;-58
2022/06/30 06:18:25;;;;;;;5.80;5.40;;;20.60;99.90;;;;;;5054027;28;20448;-58
2022/06/30 06:20:52;;;;;;;7.20;6.00;;;20.70;99.90;;;;;;5054391;28;20951;-58
2022/06/30 06:23:18;;;;;;;6.63;6.07;;;20.50;99.90;;;;;;5053940;28;20448;-58
2022/06/30 06:25:45;;;;;;;6.43;5.93;;;20.40;99.90;;;;;;5053736;28;20962;-58
2022/06/30 06:30:57;;;;;;;7.13;6.53;;;20.30;99.90;;;;;;5054152;28;20432;-58
2022/06/30 06:33:23;;;;;;;5.97;5.47;;;20.20;99.90;;;;;;5053857;28;20484;-58
2022/06/30 06:35:50;;;;;;;6.83;6.23;;;20.30;99.90;;;;;;5053897;28;20455;-58
2022/06/30 06:38:16;;;;;;;6.43;5.83;;;20.40;99.90;;;;;;5053746;28;20961;-58
2022/06/30 06:40:43;;;;;;;9.00;5.93;;;20.30;99.90;;;;;;5053223;28;20484;-58
2022/06/30 06:43:09;;;;;;;6.37;5.97;;;20.30;99.90;;;;;;5053546;28;20547;-57
2022/06/30 06:45:36;;;;;;;6.07;5.67;;;20.20;99.90;;;;;;5053617;28;20452;-57
2022/06/30 06:48:04;;;;;;;6.13;5.63;;;20.30;99.90;;;;;;5053645;28;20803;-59
2022/06/30 06:50:31;;;;;;;6.70;6.20;;;20.20;99.90;;;;;;5053536;28;20474;-57
2022/06/30 06:52:57;;;;;;;6.63;6.03;;;20.10;99.90;;;;;;5053269;28;20946;-55
2022/06/30 06:55:24;;;;;;;6.50;6.00;;;20.20;99.90;;;;;;5053446;28;20570;-58
2022/06/30 06:57:50;;;;;;;5.90;5.40;;;20.30;99.90;;;;;;5053136;28;20571;-58
2022/06/30 07:00:17;;;;;;;5.93;5.37;;;20.10;99.90;;;;;;5053238;28;20466;-57
2022/06/30 07:02:44;;;;;;;6.70;6.13;;;20.10;99.90;;;;;;5053395;28;20875;-58
2022/06/30 07:05:12;;;;;;;7.00;6.13;;;20.40;99.90;;;;;;5053329;28;20789;-57
2022/06/30 07:07:39;;;;;;;6.23;5.60;;;20.50;99.90;;;;;;5053239;28;20456;-58
2022/06/30 07:10:07;;;;;;;9.33;5.53;;;20.80;99.90;;;;;;5053238;28;20528;-58
2022/06/30 07:12:34;;;;;;;7.07;5.20;;;21.00;99.90;;;;;;5053027;28;20463;-58
2022/06/30 07:15:02;;;;;;;8.03;6.93;;;21.00;99.90;;;;;;5053178;28;20582;-58
2022/06/30 07:17:28;;;;;;;6.00;5.50;;;20.80;99.90;;;;;;5053221;28;20543;-58
2022/06/30 07:19:54;;;;;;;6.20;5.70;;;20.90;99.90;;;;;;5053158;28;20455;-58
2022/06/30 07:22:23;;;;;;;6.63;6.13;;;21.20;99.90;;;;;;5053275;28;20527;-58
2022/06/30 07:24:49;;;;;;;7.23;6.53;;;21.30;99.90;;;;;;5053153;28;20448;-58
2022/06/30 07:27:16;;;;;;;6.30;5.90;;;21.30;99.90;;;;;;5053106;28;20482;-59
2022/06/30 07:29:42;;;;;;;6.00;5.60;;;21.10;99.90;;;;;;5053150;28;20856;-57
2022/06/30 07:32:11;;;;;;;6.77;6.23;;;21.00;99.90;;;;;;5052966;28;20454;-58
2022/06/30 07:34:37;;;;;;;6.03;5.47;;;21.20;99.90;;;;;;5052845;28;20484;-58
2022/06/30 07:37:04;;;;;;;6.07;5.67;;;21.40;99.90;;;;;;5052954;28;20478;-58
2022/06/30 07:39:32;;;;;;;6.83;6.20;;;21.30;99.90;;;;;;5052840;28;20454;-58
2022/06/30 07:41:59;;;;;;;6.57;6.07;;;21.10;99.90;;;;;;5052677;28;20452;-58
2022/06/30 07:44:26;;;;;;;6.10;5.63;;;21.00;99.90;;;;;;5052627;28;21005;-58
2022/06/30 07:46:52;;;;;;;6.97;6.40;;;21.10;99.90;;;;;;5052718;28;20448;-58
2022/06/30 07:49:19;;;;;;;7.20;6.07;;;21.10;99.90;;;;;;5052788;28;20673;-58
2022/06/30 07:51:45;;;;;;;9.83;6.27;;;21.10;99.90;;;;;;5052811;28;20850;-58
2022/06/30 07:54:12;;;;;;;8.83;8.10;;;21.20;99.90;;;;;;5056745;28;20484;-58
2022/06/30 07:56:40;;;;;;;7.83;6.40;;;21.00;99.90;;;;;;5056736;28;21052;-59
2022/06/30 07:59:06;;;;;;;8.97;6.17;;;21.10;99.90;;;;;;5056685;28;20974;-58
2022/06/30 08:01:33;;;;;;;6.67;6.00;;;21.30;99.90;;;;;;5056749;28;20454;-59
2022/06/30 08:03:59;;;;;;;7.73;7.03;;;21.40;99.90;;;;;;5056665;28;20444;-57
2022/06/30 08:06:26;;;;;;;10.03;8.00;;;21.50;99.90;;;;;;5056653;28;20450;-58
2022/06/30 08:08:52;;;;;;;7.00;6.50;;;21.40;99.90;;;;;;5056476;28;20451;-58
2022/06/30 08:11:19;;;;;;;8.20;7.50;;;21.40;99.90;;;;;;5056730;28;20448;-57
2022/06/30 08:13:47;;;;;;;8.67;7.87;;;21.70;99.90;;;;;;5056347;28;21060;-57
2022/06/30 08:16:14;;;;;;;8.33;7.50;;;21.70;99.90;;;;;;5056340;28;20997;-57
2022/06/30 08:18:41;;;;;;;11.97;7.10;;;21.90;99.90;;;;;;5056704;28;20448;-57
2022/06/30 08:21:09;;;;;;;8.77;7.97;;;22.00;99.90;;;;;;5056333;28;20479;-57
2022/06/30 08:23:36;;;;;;;9.63;6.73;;;21.70;99.90;;;;;;5056218;28;20463;-59
2022/06/30 08:26:02;;;;;;;7.57;6.83;;;21.60;99.90;;;;;;5056461;28;20455;-58
2022/06/30 08:28:31;;;;;;;7.17;6.67;;;21.80;99.90;;;;;;5056187;28;20444;-58
2022/06/30 08:31:00;;;;;;;6.97;6.47;;;21.60;99.90;;;;;;5056268;28;20448;-59
2022/06/30 08:33:27;;;;;;;8.33;7.50;;;21.70;99.90;;;;;;5055953;28;20507;-58
2022/06/30 08:35:53;;;;;;;8.27;7.67;;;21.90;99.90;;;;;;5055976;28;20548;-55
2022/06/30 08:38:21;;;;;;;10.10;9.13;;;21.90;99.90;;;;;;5056199;28;20535;-57
2022/06/30 08:43:33;;;;;;;10.50;9.40;;;21.70;99.90;;;;;;5056043;28;20451;-58
2022/06/30 08:46:02;;;;;;;10.87;8.90;;;21.50;99.90;;;;;;5055921;28;20882;-58
2022/06/30 08:48:28;;;;;;;9.30;8.27;;;21.40;99.90;;;;;;5055858;28;20513;-57
2022/06/30 08:51:00;;;;;;;9.90;8.90;;;21.50;99.90;;;;;;5055559;28;20970;-58
2022/06/30 08:53:32;;;;;;;10.10;9.10;;;21.70;99.90;;;;;;5055815;28;20563;-57
2022/06/30 08:55:59;;;;;;;11.10;10.17;;;22.00;99.90;;;;;;5055636;28;20878;-59
2022/06/30 08:58:26;;;;;;;16.70;10.10;;;22.10;99.90;;;;;;5055654;28;20541;-58
2022/06/30 09:00:53;;;;;;;9.37;8.50;;;22.00;99.90;;;;;;5055667;28;20539;-57
2022/06/30 09:03:21;;;;;;;11.00;9.50;;;22.00;99.90;;;;;;5055368;28;20547;-58
2022/06/30 09:05:48;;;;;;;10.83;9.93;;;21.80;99.90;;;;;;5055712;28;20484;-58
2022/06/30 09:08:14;;;;;;;10.97;10.03;;;21.70;99.90;;;;;;5055518;28;20450;-56
2022/06/30 09:10:48;;;;;;;11.40;10.30;;;22.00;99.90;;;;;;5055463;28;20536;-58
2022/06/30 09:13:15;;;;;;;9.97;9.27;;;22.20;99.90;;;;;;5055402;28;20479;-58
2022/06/30 09:15:41;;;;;;;10.93;9.73;;;22.30;99.90;;;;;;5055208;28;20448;-59
2022/06/30 09:18:08;;;;;;;12.80;11.47;;;22.50;99.90;;;;;;5055427;28;20448;-58
2022/06/30 09:20:37;;;;;;;14.07;11.73;;;22.50;99.90;;;;;;5055338;28;20452;-58
2022/06/30 09:23:20;;;;;;;10.50;9.70;;;22.30;99.90;;;;;;5055105;28;20456;-59
2022/06/30 09:25:48;;;;;;;12.10;10.83;;;22.30;99.90;;;;;;5055081;28;20452;-58
2022/06/30 09:28:15;;;;;;;11.90;10.77;;;22.30;99.90;;;;;;5054946;28;20606;-57
2022/06/30 09:30:42;;;;;;;12.97;11.17;;;22.50;99.90;;;;;;5055146;28;20523;-58
2022/06/30 09:33:09;;;;;;;12.93;11.67;;;22.50;99.90;;;;;;5055017;28;20539;-58
2022/06/30 09:35:38;;;;;;;13.13;11.83;;;22.60;99.90;;;;;;5055501;28;20498;-59
2022/06/30 09:38:07;;;;;;;12.40;11.23;;;22.70;99.90;;;;;;5054920;28;20460;-58
2022/06/30 09:40:35;;;;;;;13.00;11.70;;;22.70;99.90;;;;;;5054736;28;20547;-58
2022/06/30 09:43:03;;;;;;;13.13;11.93;;;22.60;99.90;;;;;;5055006;28;20858;-59
2022/06/30 09:45:36;;;;;;;13.53;12.00;;;22.60;99.90;;;;;;5054321;28;20705;-58
2022/06/30 09:48:03;;;;;;;12.53;11.33;;;22.50;99.90;;;;;;5066107;28;20455;-52
2022/06/30 09:50:29;;;;;;;13.10;12.00;;;22.80;99.90;;;;;;5068328;28;20943;-59
2022/06/30 09:53:10;;;;;;;13.30;11.90;;;22.80;99.90;;;;;;5075215;28;20938;-60
2022/06/30 09:55:39;;;;;;;14.10;12.80;;;23.00;99.90;;;;;;5077057;28;20961;-60
2022/06/30 09:58:06;;;;;;;13.17;11.97;;;23.20;99.90;;;;;;5082898;28;20973;-57
2022/06/30 10:00:43;;;;;;;13.40;12.03;;;23.40;99.90;;;;;;5074033;28;20454;-58
2022/06/30 10:03:10;;;;;;;14.60;13.30;;;23.50;99.90;;;;;;5058411;28;20547;-58
2022/06/30 10:05:38;;;;;;;14.33;12.83;;;23.50;99.90;;;;;;5054439;28;20535;-59
2022/06/30 10:08:06;;;;;;;14.80;13.30;;;23.50;99.90;;;;;;5054476;28;20448;-59
2022/06/30 10:10:33;;;;;;;14.50;13.10;;;23.50;99.90;;;;;;5060875;28;20830;-58
2022/06/30 10:13:01;;;;;;;12.70;11.47;;;23.60;99.90;;;;;;5068613;28;20980;-59
2022/06/30 10:15:29;;;;;;;14.30;12.90;;;23.90;99.90;;;;;;5078921;28;20488;-59
2022/06/30 10:17:57;;;;;;;14.70;13.40;;;23.90;99.90;;;;;;5073413;28;20826;-60
2022/06/30 10:20:23;;;;;;;13.10;12.00;;;23.70;99.90;;;;;;5071001;28;20459;-61
2022/06/30 10:22:50;;;;;;;13.00;11.90;;;24.10;99.90;;;;;;5066289;28;20462;-62
2022/06/30 10:25:18;;;;;;;14.43;13.23;;;24.60;99.90;;;;;;5078706;28;20457;-61
2022/06/30 10:27:47;;;;;;;21.30;19.30;;;24.40;99.90;;;;;;5074013;28;20458;-58
2022/06/30 10:30:19;;;;;;;15.40;14.00;;;24.50;99.90;;;;;;5074002;28;20443;-57
2022/06/30 10:32:55;;;;;;;15.30;14.00;;;24.80;99.90;;;;;;5072790;28;20517;-60
2022/06/30 10:35:32;;;;;;;15.20;13.80;;;24.80;99.90;;;;;;5072700;28;20481;-59
2022/06/30 10:38:05;;;;;;;14.20;12.90;;;24.70;99.90;;;;;;5067566;28;20878;-61
2022/06/30 10:40:45;;;;;;;14.60;13.30;;;24.40;99.90;;;;;;5072817;28;20451;-60
2022/06/30 10:43:13;;;;;;;17.33;15.73;;;23.90;99.90;;;;;;5071407;28;20451;-59
2022/06/30 10:45:58;;;;;;;16.70;15.13;;;23.10;99.90;;;;;;5058996;28;20449;-58
2022/06/30 10:48:27;;;;;;;16.83;15.20;;;23.20;99.90;;;;;;5053691;28;20440;-58
2022/06/30 10:50:54;;;;;;;16.93;15.43;;;23.30;99.90;;;;;;5067203;28;20973;-58
2022/06/30 10:53:49;;;;;;;16.90;15.33;;;23.70;99.90;;;;;;5073459;28;20490;-60
2022/06/30 10:56:16;;;;;;;15.63;14.20;;;23.90;99.90;;;;;;5071787;28;20489;-59
2022/06/30 10:59:04;;;;;;;15.90;14.50;;;24.00;99.90;;;;;;5072343;28;20462;-59
2022/06/30 11:01:31;;;;;;;16.43;14.97;;;23.90;99.90;;;;;;5072579;28;20487;-59
2022/06/30 11:04:01;;;;;;;18.17;16.47;;;24.30;99.90;;;;;;5069294;28;20551;-60
2022/06/30 11:06:58;;;;;;;16.50;15.10;;;23.90;99.90;;;;;;5071213;28;20480;-60
2022/06/30 11:09:57;;;;;;;15.87;14.57;;;23.40;99.90;;;;;;5068440;28;20530;-59
2022/06/30 11:12:59;;;;;;;16.43;15.00;;;23.60;99.90;;;;;;5068987;28;20452;-58
2022/06/30 11:16:06;;;;;;;16.80;15.30;;;23.60;99.90;;;;;;5057207;28;20933;-59
2022/06/30 11:18:34;;;;;;;17.23;15.83;;;24.50;99.90;;;;;;5066647;28;20487;-59
2022/06/30 11:21:02;;;;;;;15.63;14.43;;;25.40;99.90;;;;;;5072337;28;20711;-59
2022/06/30 11:23:36;;;;;;;16.23;14.93;;;25.90;99.90;;;;;;5069490;28;20462;-59
2022/06/30 11:28:49;;;;;;;16.23;14.90;;;26.70;99.90;;;;;;5055077;28;20486;-61
2022/06/30 11:31:27;;;;;;;15.70;14.37;;;27.00;99.90;;;;;;5052640;28;20479;-60
2022/06/30 11:33:56;;;;;;;14.80;13.57;;;26.80;99.90;;;;;;5064810;28;20451;-60
2022/06/30 11:36:23;;;;;;;14.50;13.40;;;26.30;99.90;;;;;;5071664;28;20455;-60
2022/06/30 11:38:54;;;;;;;16.03;14.63;;;26.20;99.90;;;;;;5056465;28;20467;-60
2022/06/30 11:44:10;;;;;;;13.37;12.30;;;26.90;99.90;;;;;;5068957;28;20467;-61
2022/06/30 11:46:51;;;;;;;13.87;12.77;;;27.60;99.90;;;;;;5071876;28;20451;-61
2022/06/30 11:49:18;;;;;;;14.10;13.10;;;26.90;99.90;;;;;;5071280;28;20509;-59
2022/06/30 11:51:45;;;;;;;14.90;13.60;;;26.00;99.90;;;;;;5066668;28;20788;-60
2022/06/30 11:54:13;;;;;;;13.90;12.80;;;25.70;99.90;;;;;;5064474;28;20479;-59
2022/06/30 11:56:44;;;;;;;13.40;12.40;;;24.70;99.90;;;;;;5066094;28;20479;-60
2022/06/30 11:59:12;;;;;;;14.60;13.30;;;24.80;99.90;;;;;;5065004;28;20456;-59
2022/06/30 12:01:39;;;;;;;14.80;13.20;;;24.70;99.90;;;;;;5070130;28;20759;-59
2022/06/30 12:04:16;;;;;;;13.97;12.77;;;25.00;99.90;;;;;;5067052;28;20470;-59
2022/06/30 12:06:43;;;;;;;15.00;13.70;;;25.30;99.90;;;;;;5071611;28;20954;-60
2022/06/30 12:09:09;;;;;;;15.70;14.30;;;25.00;99.90;;;;;;5072867;28;20539;-60
2022/06/30 12:11:36;;;;;;;13.70;12.63;;;24.90;99.90;;;;;;5071876;28;20446;-59
2022/06/30 12:14:03;;;;;;;14.37;13.17;;;24.90;99.90;;;;;;5071497;28;20534;-60
2022/06/30 12:16:31;;;;;;;14.47;13.27;;;24.90;99.90;;;;;;5069431;28;20452;-60
2022/06/30 12:18:57;;;;;;;14.83;13.60;;;25.10;99.90;;;;;;5070631;28;20501;-60
2022/06/30 12:21:24;;;;;;;13.67;12.47;;;25.10;99.90;;;;;;5062318;28;20990;-59
2022/06/30 12:23:51;;;;;;;13.20;12.10;;;25.50;99.90;;;;;;5071327;28;20525;-60
2022/06/30 12:26:18;;;;;;;13.27;12.17;;;25.60;99.90;;;;;;5071209;28;20512;-60
2022/06/30 12:28:50;;;;;;;12.30;11.40;;;26.00;99.90;;;;;;5069554;28;20558;-60
2022/06/30 12:31:24;;;;;;;13.23;12.13;;;26.60;99.90;;;;;;5065916;28;20531;-59
2022/06/30 12:33:52;;;;;;;15.43;13.97;;;26.60;99.90;;;;;;5062158;28;20531;-57
2022/06/30 12:36:19;;;;;;;15.33;14.10;;;26.60;99.90;;;;;;5070110;28;21001;-56
2022/06/30 12:38:46;;;;;;;14.77;13.67;;;27.00;99.90;;;;;;5054769;28;20991;-56
2022/06/30 12:41:13;;;;;;;14.93;13.53;;;26.80;99.90;;;;;;5055942;28;20482;-60
2022/06/30 12:43:44;;;;;;;13.57;12.47;;;26.60;99.90;;;;;;5056026;28;20510;-62
2022/06/30 12:46:11;;;;;;;13.50;12.10;;;26.10;99.90;;;;;;5055463;28;20456;-60
2022/06/30 12:48:43;;;;;;;12.77;11.80;;;26.10;99.90;;;;;;5073442;28;20458;-61
2022/06/30 12:51:14;;;;;;;13.03;12.10;;;26.00;99.90;;;;;;5074211;28;20816;-59
2022/06/30 12:53:41;;;;;;;14.30;12.90;;;26.20;99.90;;;;;;5075749;28;20451;-59
2022/06/30 12:56:13;;;;;;;14.00;12.90;;;26.00;99.90;;;;;;5075289;28;20528;-59
2022/06/30 12:58:50;;;;;;;13.70;12.70;;;25.80;99.90;;;;;;5056236;28;20487;-59
2022/06/30 13:01:18;;;;;;;13.27;12.20;;;25.60;99.90;;;;;;5060722;28;20539;-60
2022/06/30 13:03:50;;;;;;;14.80;13.50;;;25.60;99.90;;;;;;5074207;28;20535;-59
2022/06/30 13:06:18;;;;;;;13.07;12.13;;;25.80;99.90;;;;;;5074111;28;20453;-59
2022/06/30 13:08:46;;;;;;;12.67;11.60;;;25.90;99.90;;;;;;5075221;28;20522;-60